Time;durP1;ratioP1;P1;durP2;ratioP2;P2;SDS_P1;SDS_P2;PMS_P1;PMS_P2;Temp;Humidity;BMP_temperature;BMP_pressure;BME280_temperature;BME280_humidity;BME280_pressure;Samples;Min_cycle;Max_cycle;Signal;HPM_P1;HPM_P2
2021/10/31 00:01:23;;;;;;;19.02;10.25;;;13.10;87.00;;;;;;5024977;28;20028;-75
2021/10/31 00:03:50;;;;;;;13.68;9.10;;;13.00;87.30;;;;;;5030517;28;20041;-82
2021/10/31 00:06:15;;;;;;;11.85;9.27;;;13.00;87.50;;;;;;5032046;28;20509;-83
2021/10/31 00:08:43;;;;;;;15.68;10.63;;;13.00;87.60;;;;;;5030437;28;20116;-83
2021/10/31 00:11:09;;;;;;;14.63;10.77;;;13.00;87.70;;;;;;5023015;28;20030;-75
2021/10/31 00:13:35;;;;;;;13.60;9.88;;;13.00;87.60;;;;;;5027019;28;20583;-75
2021/10/31 00:16:02;;;;;;;12.63;9.15;;;13.00;87.60;;;;;;5009471;28;20393;-76
2021/10/31 00:18:28;;;;;;;13.00;10.02;;;13.00;87.30;;;;;;5027687;28;20168;-75
2021/10/31 00:20:56;;;;;;;18.17;11.15;;;13.00;87.40;;;;;;5013807;28;20136;-75
2021/10/31 00:23:22;;;;;;;14.68;11.05;;;13.00;87.50;;;;;;5030753;28;20040;-76
2021/10/31 00:25:48;;;;;;;14.43;10.60;;;13.00;87.50;;;;;;5013627;28;20040;-75
2021/10/31 00:28:13;;;;;;;12.23;10.15;;;13.00;87.50;;;;;;5030134;28;20037;-75
2021/10/31 00:30:39;;;;;;;11.27;9.27;;;12.90;87.50;;;;;;5031878;28;20410;-75
2021/10/31 00:33:06;;;;;;;17.98;9.85;;;13.00;87.30;;;;;;5014573;28;20048;-76
2021/10/31 00:35:31;;;;;;;17.05;9.80;;;13.00;87.00;;;;;;5029425;28;20404;-76
2021/10/31 00:37:57;;;;;;;12.65;10.40;;;12.90;86.90;;;;;;5032076;28;20021;-83
2021/10/31 00:40:23;;;;;;;11.65;9.65;;;12.90;86.70;;;;;;5030883;28;20618;-83
2021/10/31 00:42:49;;;;;;;16.17;9.73;;;12.90;86.40;;;;;;5030061;28;20032;-76
2021/10/31 00:45:14;;;;;;;11.98;9.45;;;12.90;86.20;;;;;;4996732;28;20045;-76
2021/10/31 00:47:40;;;;;;;12.45;9.35;;;12.90;86.00;;;;;;5013278;28;20116;-76
2021/10/31 00:50:07;;;;;;;13.18;9.95;;;12.80;85.80;;;;;;5025771;28;20037;-76
2021/10/31 00:52:33;;;;;;;9.40;8.05;;;12.80;85.60;;;;;;5012995;28;20032;-75
2021/10/31 00:54:59;;;;;;;10.90;8.00;;;12.80;85.40;;;;;;5030175;28;20030;-75
2021/10/31 00:57:25;;;;;;;9.27;8.38;;;12.70;85.10;;;;;;5029399;28;20060;-76
2021/10/31 00:59:51;;;;;;;9.80;8.63;;;12.70;85.00;;;;;;5028841;28;20059;-76
2021/10/31 01:02:17;;;;;;;11.75;9.07;;;12.70;85.00;;;;;;5030788;28;20033;-76
2021/10/31 01:04:49;;;;;;;16.75;8.57;;;12.70;84.90;;;;;;5030844;28;20040;-82
2021/10/31 01:07:32;;;;;;;10.33;8.20;;;12.60;84.70;;;;;;5029676;28;20031;-83
2021/10/31 01:10:28;;;;;;;9.27;8.13;;;12.60;84.60;;;;;;5029111;28;20296;-76
2021/10/31 01:13:26;;;;;;;9.45;8.10;;;12.50;84.50;;;;;;5020487;28;20156;-75
2021/10/31 01:16:07;;;;;;;12.43;8.52;;;12.50;84.50;;;;;;5011287;28;20060;-82
2021/10/31 01:18:52;;;;;;;9.82;8.38;;;12.50;84.50;;;;;;5030657;28;20083;-75
2021/10/31 01:21:42;;;;;;;11.25;8.43;;;12.40;84.70;;;;;;5029694;28;20088;-75
2021/10/31 01:24:26;;;;;;;13.10;8.77;;;12.40;84.70;;;;;;5030212;28;20113;-75
2021/10/31 01:27:25;;;;;;;10.23;8.02;;;12.40;84.80;;;;;;5030021;28;20033;-75
2021/10/31 01:30:05;;;;;;;15.90;9.18;;;12.30;84.70;;;;;;5030087;28;20070;-75
2021/10/31 01:33:03;;;;;;;11.98;8.85;;;12.30;84.90;;;;;;5022974;28;20010;-76
2021/10/31 01:35:49;;;;;;;12.63;9.10;;;12.30;85.00;;;;;;5027218;28;20412;-76
2021/10/31 01:38:42;;;;;;;15.38;9.50;;;12.30;85.10;;;;;;5028495;28;20507;-76
2021/10/31 01:41:28;;;;;;;14.15;8.80;;;12.30;85.20;;;;;;5033315;28;20025;-82
2021/10/31 01:44:05;;;;;;;10.73;8.38;;;12.30;85.10;;;;;;5026479;28;20118;-82
2021/10/31 01:47:01;;;;;;;13.13;8.65;;;12.30;85.00;;;;;;5029049;28;20112;-82
2021/10/31 01:49:42;;;;;;;10.57;8.45;;;12.30;85.00;;;;;;5029176;28;20033;-75
2021/10/31 01:52:20;;;;;;;11.57;8.00;;;12.20;85.10;;;;;;5028890;28;20072;-76
2021/10/31 01:55:02;;;;;;;15.13;7.93;;;12.20;84.90;;;;;;5029231;28;20033;-76
2021/10/31 01:57:30;;;;;;;10.05;8.50;;;12.20;84.90;;;;;;5028164;28;20132;-76
2021/10/31 02:00:09;;;;;;;13.35;8.65;;;12.20;84.70;;;;;;5028520;28;20122;-75
2021/10/31 02:02:40;;;;;;;14.23;8.77;;;12.10;84.70;;;;;;5025571;28;20041;-76
2021/10/31 02:05:09;;;;;;;15.15;8.65;;;12.10;84.70;;;;;;5028312;28;20025;-76
2021/10/31 02:07:38;;;;;;;13.20;8.75;;;12.10;84.70;;;;;;5029431;28;20507;-76
2021/10/31 02:10:06;;;;;;;8.73;7.68;;;12.10;84.70;;;;;;5029056;28;20021;-77
2021/10/31 02:12:34;;;;;;;12.93;9.15;;;12.10;84.60;;;;;;5030061;28;20473;-76
2021/10/31 02:15:00;;;;;;;12.68;8.90;;;12.00;84.50;;;;;;5033506;28;20021;-83
2021/10/31 02:17:27;;;;;;;10.73;8.05;;;12.00;84.30;;;;;;5030931;28;20404;-76
2021/10/31 02:19:54;;;;;;;11.68;8.18;;;12.00;84.40;;;;;;5028080;28;20029;-76
2021/10/31 02:22:31;;;;;;;16.08;9.43;;;12.00;84.20;;;;;;5030329;28;20025;-76
2021/10/31 02:25:00;;;;;;;11.20;7.78;;;12.00;84.30;;;;;;5030042;28;20544;-76
2021/10/31 02:27:29;;;;;;;14.00;8.30;;;12.00;84.20;;;;;;5024991;28;20079;-76
2021/10/31 02:29:57;;;;;;;12.57;8.05;;;11.90;84.00;;;;;;5029145;28;20030;-82
2021/10/31 02:32:26;;;;;;;12.90;8.13;;;11.90;84.00;;;;;;5011047;28;20057;-82
2021/10/31 02:34:56;;;;;;;9.90;7.70;;;11.90;84.00;;;;;;5027614;28;20041;-81
2021/10/31 02:37:25;;;;;;;11.20;8.35;;;11.90;83.90;;;;;;5011316;28;20108;-83
2021/10/31 02:39:55;;;;;;;10.43;7.85;;;11.90;83.80;;;;;;5029161;28;20029;-82
2021/10/31 02:42:21;;;;;;;10.80;7.40;;;11.80;83.60;;;;;;5029393;28;20079;-81
2021/10/31 02:44:46;;;;;;;10.75;8.50;;;11.80;83.70;;;;;;5002027;28;20021;-76
2021/10/31 02:47:19;;;;;;;11.93;8.63;;;11.80;83.80;;;;;;5026620;28;20079;-81
2021/10/31 02:49:45;;;;;;;13.80;8.13;;;11.80;84.10;;;;;;5028513;28;20029;-75
2021/10/31 02:52:24;;;;;;;9.60;7.22;;;11.80;84.40;;;;;;5027347;28;20025;-81
2021/10/31 02:54:53;;;;;;;17.42;9.10;;;11.80;84.40;;;;;;5027633;28;20034;-82
2021/10/31 02:57:30;;;;;;;13.70;8.00;;;11.80;84.40;;;;;;5027019;28;20032;-81
2021/10/31 03:00:04;;;;;;;11.35;8.40;;;11.80;84.60;;;;;;5029223;28;20029;-81
2021/10/31 03:02:31;;;;;;;12.43;8.10;;;11.80;84.50;;;;;;5029244;28;20033;-76
2021/10/31 03:04:57;;;;;;;12.98;8.00;;;11.70;84.50;;;;;;5027971;28;20064;-81
2021/10/31 03:07:23;;;;;;;14.55;7.93;;;11.70;84.70;;;;;;5029151;28;20449;-81
2021/10/31 03:09:49;;;;;;;15.18;8.60;;;11.70;84.80;;;;;;5011037;28;20128;-82
2021/10/31 03:12:17;;;;;;;11.23;8.23;;;11.70;84.70;;;;;;5011774;28;20112;-75
2021/10/31 03:14:42;;;;;;;14.25;8.85;;;11.70;84.80;;;;;;5027899;28;20423;-76
2021/10/31 03:17:11;;;;;;;16.55;8.55;;;11.70;84.70;;;;;;5013696;28;20359;-75
2021/10/31 03:19:37;;;;;;;10.25;8.57;;;11.70;84.70;;;;;;5028214;28;20120;-75
2021/10/31 03:22:07;;;;;;;11.10;7.72;;;11.70;84.80;;;;;;5032019;28;20033;-75
2021/10/31 03:24:33;;;;;;;13.90;7.82;;;11.70;84.70;;;;;;5032990;28;20071;-75
2021/10/31 03:26:58;;;;;;;12.25;8.23;;;11.70;84.80;;;;;;5028081;28;20503;-82
2021/10/31 03:29:25;;;;;;;9.73;7.43;;;11.70;84.80;;;;;;5032411;28;20033;-80
2021/10/31 03:31:54;;;;;;;13.27;7.50;;;11.70;84.80;;;;;;5015227;28;20395;-81
2021/10/31 03:34:20;;;;;;;12.27;8.27;;;11.70;84.80;;;;;;5031374;28;20091;-81
2021/10/31 03:36:47;;;;;;;10.15;8.13;;;11.60;85.30;;;;;;5036944;28;20033;-83
2021/10/31 03:39:13;;;;;;;12.93;8.25;;;11.60;84.70;;;;;;5014882;28;20050;-81
2021/10/31 03:41:39;;;;;;;13.68;7.75;;;11.60;84.70;;;;;;5033028;28;20065;-81
2021/10/31 03:44:05;;;;;;;9.60;7.72;;;11.60;84.90;;;;;;5032728;28;20053;-82
2021/10/31 03:46:31;;;;;;;12.27;7.60;;;11.70;85.00;;;;;;5017544;28;20087;-82
2021/10/31 03:48:57;;;;;;;10.60;7.50;;;11.60;85.00;;;;;;5013444;28;20037;-82
2021/10/31 03:51:23;;;;;;;11.43;7.80;;;11.60;85.10;;;;;;5034765;28;20030;-81
2021/10/31 03:53:49;;;;;;;11.25;8.02;;;11.60;85.20;;;;;;5039696;28;20253;-75
2021/10/31 03:56:15;;;;;;;9.98;8.02;;;11.60;85.40;;;;;;5032811;28;20095;-76
2021/10/31 03:58:41;;;;;;;14.55;8.20;;;11.60;85.40;;;;;;5030534;28;20044;-75
2021/10/31 04:01:06;;;;;;;13.25;8.10;;;11.60;85.50;;;;;;5032163;28;20112;-76
2021/10/31 04:03:32;;;;;;;10.45;7.68;;;11.60;85.60;;;;;;5032871;28;20053;-76
2021/10/31 04:05:58;;;;;;;14.13;8.05;;;11.60;85.60;;;;;;5031727;28;20064;-76
2021/10/31 04:08:23;;;;;;;12.40;7.60;;;11.60;85.60;;;;;;5030883;28;20076;-76
2021/10/31 04:10:49;;;;;;;10.15;7.60;;;11.60;85.70;;;;;;5030789;28;20033;-76
2021/10/31 04:13:15;;;;;;;11.85;8.27;;;11.60;85.70;;;;;;5032140;28;20034;-76
2021/10/31 04:15:42;;;;;;;9.30;7.50;;;11.60;85.70;;;;;;5032483;28;20033;-76
2021/10/31 04:18:09;;;;;;;9.80;7.47;;;11.60;85.80;;;;;;5020681;28;20018;-75
2021/10/31 04:20:35;;;;;;;8.88;7.20;;;11.60;85.80;;;;;;5031328;28;20029;-76
2021/10/31 04:23:00;;;;;;;11.93;7.32;;;11.60;85.70;;;;;;5028937;28;20066;-82
2021/10/31 04:25:26;;;;;;;7.78;6.90;;;11.60;85.70;;;;;;5028088;28;20044;-82
2021/10/31 04:27:52;;;;;;;12.48;7.90;;;11.60;85.70;;;;;;5031740;28;20045;-82
2021/10/31 04:30:18;;;;;;;8.32;6.95;;;11.60;85.70;;;;;;5021052;28;20041;-82
2021/10/31 04:32:44;;;;;;;10.63;7.85;;;11.60;85.60;;;;;;5032010;28;20064;-82
2021/10/31 04:35:11;;;;;;;9.48;8.10;;;11.50;85.40;;;;;;5030177;28;20074;-83
2021/10/31 04:37:39;;;;;;;11.30;7.55;;;11.50;85.30;;;;;;5028014;28;20064;-82
2021/10/31 04:40:11;;;;;;;10.73;7.80;;;11.50;85.30;;;;;;5035715;28;20447;-81
2021/10/31 04:42:40;;;;;;;12.32;7.15;;;11.50;85.40;;;;;;5033723;28;20480;-82
2021/10/31 04:45:07;;;;;;;9.77;6.60;;;11.50;85.10;;;;;;5024369;28;20500;-82
2021/10/31 04:47:33;;;;;;;8.23;6.45;;;11.50;85.10;;;;;;5043250;28;20036;-82
2021/10/31 04:49:59;;;;;;;8.90;6.80;;;11.50;85.10;;;;;;5036181;28;20021;-76
2021/10/31 04:52:25;;;;;;;10.15;6.43;;;11.50;85.00;;;;;;5037617;28;20017;-76
2021/10/31 04:54:51;;;;;;;10.02;6.55;;;11.40;84.90;;;;;;5035214;28;20036;-82
2021/10/31 04:57:17;;;;;;;9.68;6.75;;;11.40;84.70;;;;;;5032659;28;20112;-81
2021/10/31 04:59:43;;;;;;;10.77;7.07;;;11.40;84.70;;;;;;5041714;28;20041;-81
2021/10/31 05:02:09;;;;;;;9.43;6.60;;;11.30;84.50;;;;;;5032072;28;20514;-82
2021/10/31 05:04:34;;;;;;;9.23;6.68;;;11.30;84.40;;;;;;5018925;28;20045;-82
2021/10/31 05:07:00;;;;;;;14.55;7.00;;;11.30;84.30;;;;;;5036257;28;20095;-82
2021/10/31 05:09:26;;;;;;;9.80;6.13;;;11.30;84.30;;;;;;5037922;28;20048;-82
2021/10/31 05:11:51;;;;;;;9.90;6.53;;;11.30;84.20;;;;;;5013562;28;20029;-81
2021/10/31 05:14:17;;;;;;;10.35;6.88;;;11.20;84.10;;;;;;5034637;28;20029;-82
2021/10/31 05:16:44;;;;;;;11.88;7.40;;;11.20;84.10;;;;;;5040143;28;20029;-81
2021/10/31 05:19:10;;;;;;;13.88;6.18;;;11.20;84.00;;;;;;5020587;28;20144;-81
2021/10/31 05:21:36;;;;;;;9.75;7.40;;;11.20;83.90;;;;;;5031289;28;20038;-76
2021/10/31 05:24:02;;;;;;;8.75;7.60;;;11.10;84.60;;;;;;5034974;28;20037;-76
2021/10/31 05:26:28;;;;;;;9.00;6.65;;;11.10;84.10;;;;;;5034725;28;20536;-76
2021/10/31 05:28:55;;;;;;;9.60;6.70;;;11.10;84.00;;;;;;5034477;28;20108;-75
2021/10/31 05:31:22;;;;;;;11.40;7.43;;;11.10;84.10;;;;;;5032321;28;20029;-81
2021/10/31 05:33:49;;;;;;;11.40;7.82;;;11.00;84.00;;;;;;5036221;28;20377;-76
2021/10/31 05:36:15;;;;;;;11.82;7.00;;;11.00;84.20;;;;;;5032592;28;20142;-76
2021/10/31 05:38:41;;;;;;;12.25;7.97;;;11.00;84.10;;;;;;5032348;28;20038;-75
2021/10/31 05:41:06;;;;;;;9.25;7.68;;;11.00;84.20;;;;;;5028829;28;20484;-82
2021/10/31 05:43:32;;;;;;;10.05;9.02;;;11.00;84.20;;;;;;5012085;28;20032;-76
2021/10/31 05:45:58;;;;;;;12.10;7.97;;;11.00;84.20;;;;;;5028744;28;20030;-76
2021/10/31 05:48:25;;;;;;;14.15;10.20;;;11.00;84.20;;;;;;5012648;28;20373;-76
2021/10/31 05:50:53;;;;;;;12.30;8.38;;;11.00;84.40;;;;;;5029794;28;20025;-76
2021/10/31 05:53:20;;;;;;;12.75;8.93;;;10.90;84.40;;;;;;5030859;28;20029;-75
2021/10/31 05:55:45;;;;;;;13.93;8.68;;;11.00;84.40;;;;;;5028904;28;20029;-76
2021/10/31 05:58:11;;;;;;;11.52;8.52;;;10.90;84.20;;;;;;5012539;28;20032;-75
2021/10/31 06:00:37;;;;;;;12.60;8.38;;;10.90;84.20;;;;;;5031134;28;20467;-76
2021/10/31 06:03:02;;;;;;;10.70;8.60;;;10.90;84.10;;;;;;5023829;28;20029;-76
2021/10/31 06:05:29;;;;;;;12.23;8.32;;;10.90;84.20;;;;;;5028063;28;20297;-75
2021/10/31 06:07:54;;;;;;;11.10;8.63;;;10.90;84.70;;;;;;5023936;28;20376;-76
2021/10/31 06:10:20;;;;;;;14.57;8.27;;;10.90;84.10;;;;;;4985422;28;20124;-81
2021/10/31 06:12:47;;;;;;;9.55;7.97;;;10.90;84.10;;;;;;5028771;28;20065;-82
2021/10/31 06:15:16;;;;;;;12.75;8.48;;;10.90;84.20;;;;;;5028037;28;20080;-82
2021/10/31 06:17:41;;;;;;;12.35;8.57;;;10.80;84.20;;;;;;5028979;28;20025;-82
2021/10/31 06:20:10;;;;;;;9.80;8.32;;;10.90;84.30;;;;;;5027456;28;20083;-82
2021/10/31 06:22:36;;;;;;;10.68;9.20;;;10.80;84.30;;;;;;5028171;28;20029;-82
2021/10/31 06:25:03;;;;;;;11.38;8.48;;;10.90;84.50;;;;;;5029467;28;20025;-82
2021/10/31 06:27:29;;;;;;;10.50;8.75;;;10.90;84.60;;;;;;5027404;28;20079;-81
2021/10/31 06:29:54;;;;;;;10.55;9.32;;;10.90;84.60;;;;;;5011112;28;20041;-81
2021/10/31 06:32:20;;;;;;;12.38;9.50;;;10.90;84.80;;;;;;5028107;28;20080;-76
2021/10/31 06:34:46;;;;;;;13.10;9.13;;;10.90;84.90;;;;;;5028557;28;20045;-76
2021/10/31 06:37:11;;;;;;;10.55;8.77;;;10.90;85.00;;;;;;5008505;28;20030;-81
2021/10/31 06:39:37;;;;;;;12.40;9.80;;;10.90;85.10;;;;;;5027034;28;20029;-82
2021/10/31 06:42:03;;;;;;;16.50;11.25;;;10.90;85.10;;;;;;5028835;28;20094;-82
2021/10/31 06:44:29;;;;;;;11.85;10.27;;;10.90;85.40;;;;;;5029218;28;20038;-81
2021/10/31 06:46:55;;;;;;;13.55;10.88;;;10.90;85.60;;;;;;5012088;28;20025;-76
2021/10/31 06:49:20;;;;;;;13.25;11.52;;;10.90;85.80;;;;;;5027367;28;20028;-76
2021/10/31 06:51:46;;;;;;;15.38;11.63;;;10.90;85.90;;;;;;5027096;28;20033;-76
2021/10/31 06:54:12;;;;;;;13.15;11.15;;;10.90;86.10;;;;;;5014060;28;20021;-73
2021/10/31 06:56:38;;;;;;;13.02;11.60;;;10.90;86.30;;;;;;5029197;28;20025;-73
2021/10/31 06:59:03;;;;;;;16.45;11.75;;;10.90;86.30;;;;;;5030691;28;20050;-73
2021/10/31 07:01:29;;;;;;;13.95;11.50;;;11.00;86.50;;;;;;5011614;28;20036;-77
2021/10/31 07:03:55;;;;;;;13.90;11.45;;;11.00;86.60;;;;;;5026503;28;20455;-78
2021/10/31 07:06:20;;;;;;;14.57;11.48;;;11.00;86.70;;;;;;5025020;28;20155;-78
2021/10/31 07:08:46;;;;;;;13.50;11.85;;;11.00;86.70;;;;;;5003302;28;20132;-78
2021/10/31 07:11:12;;;;;;;14.65;10.98;;;11.00;86.70;;;;;;5021565;28;20040;-78
2021/10/31 07:13:39;;;;;;;12.85;11.30;;;11.00;86.60;;;;;;5022639;28;20025;-78
2021/10/31 07:16:04;;;;;;;11.55;10.18;;;11.00;86.70;;;;;;5020142;28;20025;-77
2021/10/31 07:18:31;;;;;;;13.85;11.10;;;11.10;86.70;;;;;;5005825;28;20396;-73
2021/10/31 07:20:57;;;;;;;13.13;11.70;;;11.00;86.60;;;;;;5024313;28;20042;-78
2021/10/31 07:23:23;;;;;;;15.40;11.27;;;11.10;86.60;;;;;;5025033;28;20100;-78
2021/10/31 07:25:48;;;;;;;12.48;10.90;;;11.10;86.60;;;;;;5027517;28;20044;-78
2021/10/31 07:28:14;;;;;;;13.55;12.13;;;11.10;86.60;;;;;;5020394;28;20033;-78
2021/10/31 07:30:40;;;;;;;14.10;12.00;;;11.10;86.60;;;;;;5026736;28;20550;-73
2021/10/31 07:33:05;;;;;;;14.05;11.70;;;11.10;86.70;;;;;;5027359;28;20034;-73
2021/10/31 07:35:32;;;;;;;13.73;12.00;;;11.10;86.80;;;;;;5027031;28;20094;-72
2021/10/31 07:37:58;;;;;;;13.82;12.38;;;11.20;87.50;;;;;;5026367;28;20065;-74
2021/10/31 07:40:25;;;;;;;17.30;12.07;;;11.10;87.00;;;;;;5028747;28;20056;-73
2021/10/31 07:42:51;;;;;;;18.02;13.35;;;11.20;87.10;;;;;;5027296;28;20087;-73
2021/10/31 07:45:18;;;;;;;16.35;12.77;;;11.20;87.20;;;;;;5028491;28;20049;-73
2021/10/31 07:47:44;;;;;;;16.58;14.18;;;11.30;87.40;;;;;;5027419;28;20053;-72
2021/10/31 07:50:10;;;;;;;18.58;14.52;;;11.30;87.50;;;;;;5025874;28;20035;-72
2021/10/31 07:52:42;;;;;;;15.43;13.60;;;11.30;87.60;;;;;;5026093;28;20025;-72
2021/10/31 07:55:09;;;;;;;14.73;12.82;;;11.30;87.70;;;;;;5026603;28;20045;-73
2021/10/31 07:57:35;;;;;;;15.07;13.48;;;11.40;87.90;;;;;;5010715;28;20025;-73
2021/10/31 08:00:00;;;;;;;14.48;12.98;;;11.40;88.10;;;;;;5021393;28;20103;-77
2021/10/31 08:02:26;;;;;;;15.38;13.75;;;11.40;88.20;;;;;;5029382;28;20041;-79
2021/10/31 08:04:52;;;;;;;15.27;12.65;;;11.50;88.40;;;;;;5037408;28;20060;-78
2021/10/31 08:07:18;;;;;;;15.55;13.70;;;11.50;88.40;;;;;;5014420;28;20033;-77
2021/10/31 08:09:44;;;;;;;15.02;12.98;;;11.60;88.60;;;;;;5029966;28;20164;-78
2021/10/31 08:12:10;;;;;;;15.27;13.65;;;11.60;88.90;;;;;;5039557;28;20476;-73
2021/10/31 08:14:35;;;;;;;14.60;13.10;;;11.60;89.00;;;;;;5020143;28;20107;-73
2021/10/31 08:17:01;;;;;;;15.90;14.20;;;11.60;89.00;;;;;;5049910;28;20459;-72
2021/10/31 08:19:27;;;;;;;15.20;13.60;;;11.60;89.20;;;;;;5019126;28;20034;-74
2021/10/31 08:21:53;;;;;;;14.85;13.35;;;11.70;89.30;;;;;;5040069;28;20107;-72
2021/10/31 08:24:20;;;;;;;14.15;12.65;;;11.70;89.50;;;;;;5034970;28;20033;-77
2021/10/31 08:26:46;;;;;;;13.95;12.55;;;11.80;89.50;;;;;;5032445;28;20546;-72
2021/10/31 08:29:13;;;;;;;13.93;12.20;;;11.80;89.50;;;;;;5045580;28;20030;-71
2021/10/31 08:31:41;;;;;;;13.63;12.13;;;11.80;89.60;;;;;;5036495;28;20155;-72
2021/10/31 08:34:07;;;;;;;14.40;11.95;;;11.90;89.60;;;;;;5032899;28;20040;-77
2021/10/31 08:36:34;;;;;;;13.50;11.85;;;12.00;89.70;;;;;;5024045;28;20033;-77
2021/10/31 08:39:00;;;;;;;13.90;11.90;;;12.00;89.70;;;;;;5054834;28;20094;-78
2021/10/31 08:41:28;;;;;;;12.95;11.65;;;12.00;89.70;;;;;;5050314;28;20536;-76
2021/10/31 08:43:57;;;;;;;12.35;11.00;;;12.00;89.70;;;;;;5036179;28;20037;-78
2021/10/31 08:46:23;;;;;;;12.30;11.10;;;12.10;89.90;;;;;;5039050;28;20029;-78
2021/10/31 08:48:49;;;;;;;11.98;10.88;;;12.20;90.00;;;;;;5035178;28;20484;-72
2021/10/31 08:51:16;;;;;;;13.98;11.05;;;12.20;90.00;;;;;;5038420;28;20028;-73
2021/10/31 08:53:42;;;;;;;11.82;10.63;;;12.30;90.00;;;;;;5039832;28;20036;-78
2021/10/31 08:56:11;;;;;;;12.63;10.85;;;12.40;90.00;;;;;;5035372;28;20349;-77
2021/10/31 08:58:38;;;;;;;15.95;9.85;;;12.40;89.90;;;;;;5037962;28;20431;-78
2021/10/31 09:01:04;;;;;;;13.90;10.85;;;12.40;89.80;;;;;;5036933;28;20025;-77
2021/10/31 09:03:30;;;;;;;11.75;10.52;;;12.50;89.80;;;;;;5037205;28;20036;-77
2021/10/31 09:05:56;;;;;;;11.18;10.07;;;12.50;90.10;;;;;;5039118;28;20116;-78
2021/10/31 09:08:21;;;;;;;15.02;11.13;;;12.50;89.60;;;;;;5041257;28;20114;-78
2021/10/31 09:10:49;;;;;;;11.95;10.20;;;12.60;89.60;;;;;;5037216;28;20078;-78
2021/10/31 09:13:15;;;;;;;10.95;9.85;;;12.60;89.60;;;;;;5044457;28;20116;-78
2021/10/31 09:15:41;;;;;;;11.20;9.05;;;12.70;89.40;;;;;;5032075;28;20164;-78
2021/10/31 09:18:07;;;;;;;11.27;8.70;;;12.80;89.40;;;;;;5030403;28;20499;-78
2021/10/31 09:20:34;;;;;;;10.02;9.02;;;12.80;89.10;;;;;;5031051;28;20026;-78
2021/10/31 09:23:02;;;;;;;9.32;8.32;;;12.80;89.20;;;;;;5032938;28;20025;-78
2021/10/31 09:25:28;;;;;;;10.05;8.45;;;12.90;89.20;;;;;;5031366;28;20033;-78
2021/10/31 09:27:56;;;;;;;9.55;8.55;;;12.90;89.10;;;;;;5025755;28;20029;-79
2021/10/31 09:30:25;;;;;;;9.68;8.73;;;13.00;89.10;;;;;;5023862;28;20069;-78
2021/10/31 09:32:51;;;;;;;11.70;8.50;;;13.10;89.10;;;;;;5033538;28;20021;-78
2021/10/31 09:35:20;;;;;;;10.73;8.45;;;13.20;88.70;;;;;;5015613;28;20044;-78
2021/10/31 09:37:48;;;;;;;8.65;7.75;;;13.30;88.60;;;;;;5032542;28;20029;-79
2021/10/31 09:40:14;;;;;;;7.30;6.43;;;13.30;88.40;;;;;;5038740;28;20121;-79
2021/10/31 09:42:41;;;;;;;8.50;7.47;;;13.40;88.00;;;;;;5052231;28;20877;-79
2021/10/31 09:45:09;;;;;;;7.97;6.93;;;13.40;88.00;;;;;;5027506;28;20083;-79
2021/10/31 09:47:35;;;;;;;7.05;6.35;;;13.50;87.30;;;;;;5003794;28;20531;-79
2021/10/31 09:50:01;;;;;;;6.93;6.22;;;13.50;87.50;;;;;;5014948;28;20065;-79
2021/10/31 09:52:28;;;;;;;6.22;5.63;;;13.50;87.50;;;;;;5037891;28;20030;-79
2021/10/31 09:54:55;;;;;;;7.68;6.15;;;13.60;87.20;;;;;;5032987;28;20449;-79
2021/10/31 09:57:22;;;;;;;5.45;4.95;;;13.70;87.30;;;;;;5032007;28;20075;-79
2021/10/31 09:59:53;;;;;;;6.43;5.00;;;13.80;86.90;;;;;;5033578;28;20084;-76
2021/10/31 10:05:23;;;;;;;5.40;4.57;;;14.00;86.40;;;;;;5027557;28;20091;-84
2021/10/31 10:08:09;;;;;;;5.15;4.35;;;14.10;85.70;;;;;;5028798;28;20128;-77
2021/10/31 10:10:50;;;;;;;4.97;4.47;;;14.20;85.10;;;;;;5029002;28;20472;-78
2021/10/31 10:13:27;;;;;;;;;;;14.30;85.10;;;;;;5030020;28;20042;-78
2021/10/31 10:16:28;;;;;;;6.75;4.22;;;14.40;85.30;;;;;;5023824;28;19931;-85
2021/10/31 10:18:55;;;;;;;4.55;3.90;;;14.40;84.50;;;;;;5035121;28;20472;-85
2021/10/31 10:21:22;;;;;;;4.30;3.70;;;14.50;84.30;;;;;;5030225;28;20498;-86
2021/10/31 10:24:14;;;;;;;3.80;3.50;;;14.50;84.70;;;;;;5030357;28;20029;-86
2021/10/31 10:26:45;;;;;;;4.57;3.70;;;14.50;84.70;;;;;;5028520;28;20064;-86
2021/10/31 10:29:18;;;;;;;4.15;3.63;;;14.50;83.50;;;;;;5029613;28;20504;-86
2021/10/31 10:31:50;;;;;;;5.15;4.50;;;14.60;83.20;;;;;;5024130;28;20034;-79
2021/10/31 10:34:16;;;;;;;5.20;3.42;;;14.70;83.30;;;;;;5024563;28;20039;-78
2021/10/31 10:36:47;;;;;;;3.92;3.50;;;14.80;83.70;;;;;;5026824;28;20108;-77
2021/10/31 10:39:15;;;;;;;4.65;3.33;;;14.90;82.70;;;;;;5027528;28;20113;-77
2021/10/31 10:41:45;;;;;;;3.42;2.97;;;15.10;82.40;;;;;;5026708;28;20029;-78
2021/10/31 10:44:26;;;;;;;4.63;3.40;;;15.10;82.70;;;;;;5027959;28;20504;-77
2021/10/31 10:47:04;;;;;;;5.82;2.97;;;15.20;81.90;;;;;;5025571;28;20028;-86
2021/10/31 10:49:32;;;;;;;4.30;2.80;;;15.20;81.20;;;;;;5027470;28;20060;-85
2021/10/31 10:52:05;;;;;;;3.53;2.22;;;15.20;81.60;;;;;;5027210;28;20025;-86
2021/10/31 10:54:31;;;;;;;3.17;2.42;;;15.30;81.50;;;;;;5021232;28;20049;-85
2021/10/31 10:57:08;;;;;;;3.65;2.20;;;15.30;80.40;;;;;;5026732;28;20053;-77
2021/10/31 10:59:35;;;;;;;3.10;2.33;;;15.40;81.10;;;;;;5019160;28;20036;-77
2021/10/31 11:02:18;;;;;;;3.38;2.17;;;15.50;80.90;;;;;;5024264;28;20111;-78
2021/10/31 11:04:50;;;;;;;3.75;2.10;;;15.70;79.20;;;;;;5022017;28;20037;-78
2021/10/31 11:07:16;;;;;;;3.55;1.98;;;15.80;79.20;;;;;;5008621;28;20508;-78
2021/10/31 11:09:47;;;;;;;2.72;1.83;;;15.90;79.20;;;;;;5009666;28;20030;-77
2021/10/31 11:12:35;;;;;;;2.13;1.50;;;16.00;78.10;;;;;;5023585;28;20042;-78
2021/10/31 11:15:12;;;;;;;3.65;1.35;;;16.00;76.90;;;;;;5019456;28;20358;-79
2021/10/31 11:17:47;;;;;;;3.08;1.52;;;16.10;77.70;;;;;;5029419;28;20025;-78
2021/10/31 11:20:16;;;;;;;2.90;1.50;;;16.00;76.80;;;;;;5026878;28;20308;-79
2021/10/31 11:22:48;;;;;;;2.20;1.50;;;16.00;77.50;;;;;;5028113;28;20425;-76
2021/10/31 11:25:17;;;;;;;2.30;1.70;;;16.00;76.60;;;;;;5027032;28;20104;-79
2021/10/31 11:27:44;;;;;;;2.63;1.55;;;16.00;77.70;;;;;;5027510;28;20546;-77
2021/10/31 11:30:11;;;;;;;2.65;1.50;;;16.20;78.50;;;;;;5031420;28;20544;-76
2021/10/31 11:32:38;;;;;;;1.92;1.50;;;16.50;78.10;;;;;;5000284;28;20087;-78
2021/10/31 11:35:05;;;;;;;2.15;1.38;;;16.80;77.10;;;;;;5016227;28;20054;-78
2021/10/31 11:37:41;;;;;;;2.92;1.30;;;17.00;76.30;;;;;;5026761;28;20029;-77
2021/10/31 11:40:09;;;;;;;2.28;1.58;;;16.90;75.70;;;;;;5027980;28;20026;-78
2021/10/31 11:42:39;;;;;;;2.80;1.70;;;16.80;75.10;;;;;;5029874;28;20033;-84
2021/10/31 11:45:30;;;;;;;2.65;1.63;;;16.70;75.90;;;;;;5027241;28;20025;-84
2021/10/31 11:48:10;;;;;;;2.40;1.65;;;16.70;74.90;;;;;;5028042;28;20441;-84
2021/10/31 11:50:39;;;;;;;2.63;1.88;;;16.70;75.60;;;;;;5028998;28;20381;-85
2021/10/31 11:53:16;;;;;;;3.20;1.92;;;16.70;74.80;;;;;;5013949;28;20392;-85
2021/10/31 11:55:50;;;;;;;3.15;2.00;;;16.40;74.80;;;;;;5032163;28;20018;-84
2021/10/31 11:58:32;;;;;;;2.88;1.75;;;16.30;75.30;;;;;;5029109;28;20112;-84
2021/10/31 12:00:59;;;;;;;;;;;16.10;76.00;;;;;;5032060;28;20160;-85
2021/10/31 12:04:00;;;;;;;3.60;1.90;;;15.90;75.90;;;;;;5014505;28;19936;-84
2021/10/31 12:06:25;;;;;;;2.15;1.50;;;15.80;77.10;;;;;;5025659;28;20496;-84
2021/10/31 12:08:57;;;;;;;3.58;1.80;;;15.60;78.00;;;;;;5031681;28;20164;-84
2021/10/31 12:11:32;;;;;;;2.97;2.05;;;15.60;78.40;;;;;;5027664;28;20473;-84
2021/10/31 12:13:59;;;;;;;1.92;1.60;;;15.50;79.00;;;;;;5030111;28;20060;-78
2021/10/31 12:16:26;;;;;;;2.25;2.05;;;15.50;79.20;;;;;;5029229;28;20026;-78
2021/10/31 12:18:56;;;;;;;2.47;1.90;;;15.50;79.00;;;;;;5027413;28;20086;-77
2021/10/31 12:21:30;;;;;;;4.95;2.28;;;15.50;79.30;;;;;;5041069;28;20029;-77
2021/10/31 12:24:18;;;;;;;5.57;2.80;;;15.40;79.80;;;;;;5040663;28;20044;-77
2021/10/31 12:26:52;;;;;;;3.53;2.25;;;15.40;79.70;;;;;;5035259;28;20029;-84
2021/10/31 12:29:28;;;;;;;5.40;2.25;;;15.40;80.00;;;;;;5037073;28;20541;-77
2021/10/31 12:32:06;;;;;;;3.97;2.47;;;15.50;80.70;;;;;;5029950;28;20025;-77
2021/10/31 12:34:39;;;;;;;2.58;2.17;;;15.50;80.60;;;;;;5034818;28;20119;-75
2021/10/31 12:37:23;;;;;;;4.90;2.20;;;15.40;80.90;;;;;;5028043;28;20754;-75
2021/10/31 12:40:14;;;;;;;2.47;2.10;;;15.40;81.00;;;;;;5028117;28;20415;-75
2021/10/31 12:42:50;;;;;;;2.72;1.80;;;15.40;80.70;;;;;;5030656;28;20040;-76
2021/10/31 12:45:16;;;;;;;3.08;2.03;;;15.40;80.90;;;;;;5029647;28;20400;-77
2021/10/31 12:47:56;;;;;;;4.15;2.10;;;15.50;80.90;;;;;;5034662;28;20510;-77
2021/10/31 12:50:28;;;;;;;3.60;1.95;;;15.50;81.70;;;;;;5021915;28;20389;-77
2021/10/31 12:53:08;;;;;;;4.65;2.15;;;15.50;81.80;;;;;;5034574;28;20547;-77